YKY weather

Kindersley Airport
Kindersley, Saskatchewan, Canada

Public forecast

Using degrees Celsius for public forecast. Weather courtesy of forecast.io.

METAR (pilot weather report)

Retrieved 2019/05/22 06:00 UTC (41 minutes ago):

CYKY 220600Z 28009G16KT 15SM FEW170 06/M01 A3003 RMK AC2 SLP179

TAF (pilot weather forecast)

Closest forecast is North Battleford Airport, 82.7 nm (153.2 km) NNE. Retrieved 2019/05/22 06:39 UTC (2 minutes ago):

TAF CYQW 220538Z 2206/2218 05008KT P6SM SKC BECMG 2206/2208 VRB03KT BECMG 2215/2217 04010KT RMK FCST BASED ON AUTO OBS. NXT FCST BY 221200Z